Clara — V2CC9 — position and weather

sailwx.info

Track history (hours):
 
Tides and Currents Weather Stations Pressure Air Temp Water Temp Dewpoint Dewpoint Depression Visibility Wind Speed Wind Dir Waves Ship Positions

Clara

Last reported at 2014-Sep-23 07:33 UTC. Time now 2014-Sep-23 08:26 UTC.
Position N 51°35' E 002°10'.

Length 108 m; draft 6.8 m.

Type: Cargo ship. MMSI: 304983000.

Date/timePositionNaut miles runAvg speedWind from/ knotsBaromVisibWave heightAir tempDewpointWater temp
2014-Sep-23 07:33N 51°35' E 002°10'1412.5
2014-Sep-23 06:27N 51°46' E 002°24'8210.1
2014-Sep-22 22:23N 52°50' E 003°46'1511.2
2014-Sep-22 21:05N 52°60' E 004°04'611.2
2014-Sep-22 20:33N 53°04' E 004°12'1111.0
2014-Sep-22 19:33N 53°11' E 004°25'1110.7
2014-Sep-22 18:33N 53°21' E 004°32'9 9.3
2014-Sep-22 17:32N 53°29' E 004°42'9 8.8
2014-Sep-22 16:33N 53°32' E 004°55'9 8.7
2014-Sep-22 15:34N 53°35' E 005°09'10 9.6
2014-Sep-22 14:33N 53°39' E 005°24'1010.3
2014-Sep-22 13:34N 53°42' E 005°40'1110.5
2014-Sep-22 12:32N 53°46' E 005°57'57 7.2
2014-Sep-22 04:33N 53°60' E 007°32'7 6.7
2014-Sep-22 03:33N 54°01' E 007°43'6 6.1
2014-Sep-22 02:33N 54°01' E 007°53'7 6.9
2014-Sep-22 01:34N 54°01' E 008°04'8 8.0
2014-Sep-22 00:34N 54°00' E 008°18'8 8.4
2014-Sep-21 23:34N 53°58' E 008°32'8 8.1
2014-Sep-21 22:33N 53°53' E 008°43'7 7.0
2014-Sep-21 21:33N 53°51' E 008°54'8 7.7
2014-Sep-21 20:31N 53°53' E 009°07'1 1.4
2014-Sep-21 19:32N 53°54' E 009°09'76 5.0
2014-Sep-21 04:30N 54°36' E 010°56'910.0
2014-Sep-21 03:34N 54°36' E 011°13'1110.7
2014-Sep-21 02:33N 54°31' E 011°29'1010.3
2014-Sep-21 01:33N 54°27' E 011°45'1110.9
2014-Sep-21 00:34N 54°27' E 012°04'9 9.1
2014-Sep-20 23:33N 54°34' E 012°14'1010.0
2014-Sep-20 22:33N 54°41' E 012°26'1110.7
2014-Sep-20 21:34N 54°47' E 012°42'1010.3
2014-Sep-20 20:33N 54°47' E 012°60'1110.6
2014-Sep-20 19:33N 54°47' E 013°18'1110.7
2014-Sep-20 18:34N 54°46' E 013°36'1010.5
2014-Sep-20 17:34N 54°43' E 013°54'1110.7
2014-Sep-20 16:34N 54°40' E 014°12'1110.6
2014-Sep-20 15:34N 54°38' E 014°30'1311.0
2014-Sep-20 14:24N 54°40' E 014°52'10610.8
2014-Sep-20 04:34N 54°58' E 017°53'1110.8
2014-Sep-20 03:33N 54°59' E 018°12'1110.9
2014-Sep-20 02:33N 54°58' E 018°31'1111.1
2014-Sep-20 01:34N 54°52' E 018°46'1110.5
2014-Sep-20 00:34N 54°44' E 018°59'1111.2
2014-Sep-19 23:34N 54°34' E 018°51'1010.4
2014-Sep-19 22:33N 54°26' E 018°39'2 1.9
2014-Sep-19 21:33N 54°24' E 018°41'0 0.0
2014-Sep-19 20:33N 54°24' E 018°41'0 0.0
2014-Sep-19 19:33N 54°24' E 018°41'0 0.0
2014-Sep-19 18:33N 54°24' E 018°41'0 0.0
2014-Sep-19 17:30N 54°24' E 018°41'0 0.0
2014-Sep-19 16:33N 54°24' E 018°41'0 0.0
2014-Sep-19 15:33N 54°24' E 018°41'0 0.0
2014-Sep-19 14:33N 54°24' E 018°41'0 0.0
2014-Sep-19 13:33N 54°24' E 018°41'0 0.0
2014-Sep-19 12:33N 54°24' E 018°41'0 0.0
2014-Sep-19 11:33N 54°24' E 018°41'0 0.0
2014-Sep-19 10:33N 54°24' E 018°41'0 0.0
2014-Sep-19 09:33N 54°24' E 018°41'0 0.0
2014-Sep-19 08:33N 54°24' E 018°41'0 0.0
2014-Sep-19 07:33N 54°24' E 018°41'0 0.0
2014-Sep-19 06:33N 54°24' E 018°41'0 0.0
2014-Sep-19 05:33N 54°24' E 018°41'0 0.0
2014-Sep-19 04:33N 54°24' E 018°41'0 0.0
2014-Sep-19 03:33N 54°24' E 018°41'0 0.0
2014-Sep-19 02:33N 54°24' E 018°41'0 0.0
2014-Sep-19 01:30N 54°24' E 018°41'0 0.0
2014-Sep-19 00:30N 54°24' E 018°41'0 0.0
2014-Sep-18 23:33N 54°24' E 018°41'0 0.0
2014-Sep-18 22:33N 54°24' E 018°41'0 0.0
2014-Sep-18 21:33N 54°24' E 018°41'0 0.0
2014-Sep-18 20:33N 54°24' E 018°41'0 0.0
2014-Sep-18 19:33N 54°24' E 018°41'0 0.0
2014-Sep-18 18:33N 54°24' E 018°41'0 0.0
2014-Sep-18 17:33N 54°24' E 018°41'0 0.0
2014-Sep-18 16:33N 54°24' E 018°41'0 0.0
2014-Sep-18 15:33N 54°24' E 018°41'0 0.0
2014-Sep-18 14:33N 54°24' E 018°41'0 0.0
2014-Sep-18 13:33N 54°24' E 018°41'0 0.0
2014-Sep-18 12:33N 54°24' E 018°41'0 0.0
2014-Sep-18 11:33N 54°24' E 018°41'0 0.0
2014-Sep-18 10:33N 54°24' E 018°41'0 0.0
2014-Sep-18 09:33N 54°24' E 018°41'0 0.0
2014-Sep-18 08:33N 54°24' E 018°41'0 0.0
2014-Sep-18 07:33N 54°24' E 018°41'0 0.0
2014-Sep-18 06:33N 54°24' E 018°41'0 0.0
2014-Sep-18 05:33N 54°24' E 018°41'0 0.0
2014-Sep-18 04:33N 54°24' E 018°41'0 0.0
2014-Sep-18 03:33N 54°24' E 018°41'0 0.0
2014-Sep-18 02:33N 54°24' E 018°41'0 0.0
2014-Sep-18 01:33N 54°24' E 018°41'0 0.0
2014-Sep-18 00:33N 54°24' E 018°41'0 0.0
2014-Sep-17 23:33N 54°24' E 018°41'0 0.0
2014-Sep-17 22:33N 54°24' E 018°41'0 0.0
2014-Sep-17 21:33N 54°24' E 018°41'0 0.0
2014-Sep-17 20:33N 54°24' E 018°41'0 0.0
2014-Sep-17 19:33N 54°24' E 018°41'0 0.0
2014-Sep-17 18:33N 54°24' E 018°41'0 0.0
2014-Sep-17 17:33N 54°24' E 018°41'0 0.0
2014-Sep-17 16:33N 54°24' E 018°41'0 0.0
2014-Sep-17 15:33N 54°24' E 018°41'0 0.0
2014-Sep-17 14:33N 54°24' E 018°41'0 0.0
2014-Sep-17 13:33N 54°24' E 018°41'0 0.0
2014-Sep-17 12:33N 54°24' E 018°41'0 0.0
2014-Sep-17 11:33N 54°24' E 018°41'0 0.0
2014-Sep-17 10:33N 54°24' E 018°41'0 0.0
2014-Sep-17 09:33N 54°24' E 018°41'0 0.0
2014-Sep-17 08:33N 54°24' E 018°41'0 0.0
2014-Sep-17 07:33N 54°24' E 018°41'0 0.0
2014-Sep-17 06:33N 54°24' E 018°41'0 0.0
2014-Sep-17 05:32N 54°24' E 018°41'0 0.0
2014-Sep-17 04:32N 54°24' E 018°41'0 0.0
2014-Sep-17 03:32N 54°24' E 018°41'0 0.0
2014-Sep-17 02:32N 54°24' E 018°41'0 0.0
2014-Sep-17 01:32N 54°24' E 018°41'0 0.0
2014-Sep-17 00:32N 54°24' E 018°41'0 0.0
2014-Sep-16 23:32N 54°24' E 018°41'0 0.0
2014-Sep-16 22:32N 54°24' E 018°41'0 0.0
2014-Sep-16 21:32N 54°24' E 018°41'0 0.0
2014-Sep-16 20:32N 54°24' E 018°41'0 0.0
2014-Sep-16 19:32N 54°24' E 018°41'0 0.0
2014-Sep-16 18:32N 54°24' E 018°41'0 0.0
2014-Sep-16 17:32N 54°24' E 018°41'0 0.0
2014-Sep-16 16:32N 54°24' E 018°41'0 0.0
2014-Sep-16 15:32N 54°24' E 018°41'0 0.0
2014-Sep-16 14:32N 54°24' E 018°41'0 0.0
2014-Sep-16 13:32N 54°24' E 018°41'3 3.4
2014-Sep-16 12:33N 54°28' E 018°41'5 5.1
2014-Sep-16 11:33N 54°31' E 018°47'1211.8
2014-Sep-16 10:33N 54°41' E 018°57'1010.1
2014-Sep-16 09:33N 54°50' E 018°48'1110.8
2014-Sep-16 08:33N 54°55' E 018°32'1111.1
2014-Sep-16 07:33N 54°55' E 018°13'1111.0
2014-Sep-16 06:33N 54°54' E 017°54'1111.2
2014-Sep-16 05:33N 54°53' E 017°34'1111.2
2014-Sep-16 04:33N 54°52' E 017°15'1511.1
2014-Sep-16 03:11N 54°49' E 016°49'911.4
2014-Sep-16 02:26N 54°47' E 016°34'1011.4
2014-Sep-16 01:31N 54°45' E 016°17'1111.0
2014-Sep-16 00:33N 54°44' E 015°58'1310.3
2014-Sep-15 23:20N 54°42' E 015°37'21 9.4
2014-Sep-15 21:06N 54°39' E 015°01'15 9.1
2014-Sep-15 19:29N 54°37' E 014°36'9 9.6
2014-Sep-15 18:33N 54°36' E 014°20'10 9.8
2014-Sep-15 17:31N 54°39' E 014°03'10 9.8
2014-Sep-15 16:28N 54°42' E 013°46'9 9.5
2014-Sep-15 15:33N 54°44' E 013°32'10 9.8
2014-Sep-15 14:33N 54°43' E 013°15'1010.0
2014-Sep-15 13:33N 54°42' E 012°58'10 9.9
2014-Sep-15 12:33N 54°40' E 012°41'1010.1
2014-Sep-15 11:33N 54°34' E 012°26'10 9.7
2014-Sep-15 10:34N 54°27' E 012°14'9 9.3
2014-Sep-15 09:33N 54°25' E 011°59'10 9.5
2014-Sep-15 08:33N 54°26' E 011°43'1010.3
2014-Sep-15 07:33N 54°30' E 011°26'10 9.8
2014-Sep-15 06:34N 54°34' E 011°11'57 7.1
2014-Sep-14 22:32N 54°16' E 009°37'5 4.8
2014-Sep-14 21:33N 54°12' E 009°33'9 8.5
2014-Sep-14 20:32N 54°08' E 009°20'5 5.4
2014-Sep-14 19:34N 54°03' E 009°18'3 3.2
2014-Sep-14 18:34N 53°59' E 009°17'6 5.8
2014-Sep-14 17:32N 53°55' E 009°11'0 0.0
2014-Sep-14 16:32N 53°55' E 009°11'0 0.0
2014-Sep-14 15:33N 53°55' E 009°11'2 2.2
2014-Sep-14 14:33N 53°53' E 009°08'2 1.8
2014-Sep-14 13:33N 53°53' E 009°05'1211.7
2014-Sep-14 12:33N 53°51' E 008°45'1313.3
2014-Sep-14 11:34N 53°59' E 008°27'1312.7
2014-Sep-14 10:33N 53°59' E 008°05'1211.9
2014-Sep-14 09:33N 53°56' E 007°45'5610.5
2014-Sep-14 04:14N 53°43' E 006°14'710.3
2014-Sep-14 03:33N 53°40' E 006°03'10 9.8
2014-Sep-14 02:33N 53°37' E 005°47'1010.0
2014-Sep-14 01:34N 53°34' E 005°31'6210.3
2014-Sep-13 19:33N 52°52' E 004°15'1111.1
2014-Sep-13 18:33N 52°43' E 004°03'9410.4
2014-Sep-13 09:29N 51°33' E 002°21'9 9.7
2014-Sep-13 08:33N 51°26' E 002°13'1110.6
2014-Sep-13 07:33N 51°16' E 002°05'  
Track history (hours):
 
Tides and Currents Weather Stations Pressure Air Temp Water Temp Dewpoint Dewpoint Depression Visibility Wind Speed Wind Dir Waves Ship Positions

Clara

Last reported at 2014-Sep-23 07:33 UTC. Time now 2014-Sep-23 08:26 UTC.
Position N 51°35' E 002°10'.

Length 108 m; draft 6.8 m.

Type: Cargo ship. MMSI: 304983000.

Date/timePositionNaut miles runAvg speedWind from/ knotsBaromVisibWave heightAir tempDewpointWater temp
2014-Sep-23 07:33N 51°35' E 002°10'1412.5
2014-Sep-23 06:27N 51°46' E 002°24'8210.1
2014-Sep-22 22:23N 52°50' E 003°46'1511.2
2014-Sep-22 21:05N 52°60' E 004°04'611.2
2014-Sep-22 20:33N 53°04' E 004°12'1111.0
2014-Sep-22 19:33N 53°11' E 004°25'1110.7
2014-Sep-22 18:33N 53°21' E 004°32'9 9.3
2014-Sep-22 17:32N 53°29' E 004°42'9 8.8
2014-Sep-22 16:33N 53°32' E 004°55'9 8.7
2014-Sep-22 15:34N 53°35' E 005°09'10 9.6
2014-Sep-22 14:33N 53°39' E 005°24'1010.3
2014-Sep-22 13:34N 53°42' E 005°40'1110.5
2014-Sep-22 12:32N 53°46' E 005°57'57 7.2
2014-Sep-22 04:33N 53°60' E 007°32'7 6.7
2014-Sep-22 03:33N 54°01' E 007°43'6 6.1
2014-Sep-22 02:33N 54°01' E 007°53'7 6.9
2014-Sep-22 01:34N 54°01' E 008°04'8 8.0
2014-Sep-22 00:34N 54°00' E 008°18'8 8.4
2014-Sep-21 23:34N 53°58' E 008°32'8 8.1
2014-Sep-21 22:33N 53°53' E 008°43'7 7.0
2014-Sep-21 21:33N 53°51' E 008°54'8 7.7
2014-Sep-21 20:31N 53°53' E 009°07'1 1.4
2014-Sep-21 19:32N 53°54' E 009°09'76 5.0
2014-Sep-21 04:30N 54°36' E 010°56'910.0
2014-Sep-21 03:34N 54°36' E 011°13'1110.7
2014-Sep-21 02:33N 54°31' E 011°29'1010.3
2014-Sep-21 01:33N 54°27' E 011°45'1110.9
2014-Sep-21 00:34N 54°27' E 012°04'9 9.1
2014-Sep-20 23:33N 54°34' E 012°14'1010.0
2014-Sep-20 22:33N 54°41' E 012°26'1110.7
2014-Sep-20 21:34N 54°47' E 012°42'1010.3
2014-Sep-20 20:33N 54°47' E 012°60'1110.6
2014-Sep-20 19:33N 54°47' E 013°18'1110.7
2014-Sep-20 18:34N 54°46' E 013°36'1010.5
2014-Sep-20 17:34N 54°43' E 013°54'1110.7
2014-Sep-20 16:34N 54°40' E 014°12'1110.6
2014-Sep-20 15:34N 54°38' E 014°30'1311.0
2014-Sep-20 14:24N 54°40' E 014°52'10610.8
2014-Sep-20 04:34N 54°58' E 017°53'1110.8
2014-Sep-20 03:33N 54°59' E 018°12'1110.9
2014-Sep-20 02:33N 54°58' E 018°31'1111.1
2014-Sep-20 01:34N 54°52' E 018°46'1110.5
2014-Sep-20 00:34N 54°44' E 018°59'1111.2
2014-Sep-19 23:34N 54°34' E 018°51'1010.4
2014-Sep-19 22:33N 54°26' E 018°39'2 1.9
2014-Sep-19 21:33N 54°24' E 018°41'0 0.0
2014-Sep-19 20:33N 54°24' E 018°41'0 0.0
2014-Sep-19 19:33N 54°24' E 018°41'0 0.0
2014-Sep-19 18:33N 54°24' E 018°41'0 0.0
2014-Sep-19 17:30N 54°24' E 018°41'0 0.0
2014-Sep-19 16:33N 54°24' E 018°41'0 0.0
2014-Sep-19 15:33N 54°24' E 018°41'0 0.0
2014-Sep-19 14:33N 54°24' E 018°41'0 0.0
2014-Sep-19 13:33N 54°24' E 018°41'0 0.0
2014-Sep-19 12:33N 54°24' E 018°41'0 0.0
2014-Sep-19 11:33N 54°24' E 018°41'0 0.0
2014-Sep-19 10:33N 54°24' E 018°41'0 0.0
2014-Sep-19 09:33N 54°24' E 018°41'0 0.0
2014-Sep-19 08:33N 54°24' E 018°41'0 0.0
2014-Sep-19 07:33N 54°24' E 018°41'0 0.0
2014-Sep-19 06:33N 54°24' E 018°41'0 0.0
2014-Sep-19 05:33N 54°24' E 018°41'0 0.0
2014-Sep-19 04:33N 54°24' E 018°41'0 0.0
2014-Sep-19 03:33N 54°24' E 018°41'0 0.0
2014-Sep-19 02:33N 54°24' E 018°41'0 0.0
2014-Sep-19 01:30N 54°24' E 018°41'0 0.0
2014-Sep-19 00:30N 54°24' E 018°41'0 0.0
2014-Sep-18 23:33N 54°24' E 018°41'0 0.0
2014-Sep-18 22:33N 54°24' E 018°41'0 0.0
2014-Sep-18 21:33N 54°24' E 018°41'0 0.0
2014-Sep-18 20:33N 54°24' E 018°41'0 0.0
2014-Sep-18 19:33N 54°24' E 018°41'0 0.0
2014-Sep-18 18:33N 54°24' E 018°41'0 0.0
2014-Sep-18 17:33N 54°24' E 018°41'0 0.0
2014-Sep-18 16:33N 54°24' E 018°41'0 0.0
2014-Sep-18 15:33N 54°24' E 018°41'0 0.0
2014-Sep-18 14:33N 54°24' E 018°41'0 0.0
2014-Sep-18 13:33N 54°24' E 018°41'0 0.0
2014-Sep-18 12:33N 54°24' E 018°41'0 0.0
2014-Sep-18 11:33N 54°24' E 018°41'0 0.0
2014-Sep-18 10:33N 54°24' E 018°41'0 0.0
2014-Sep-18 09:33N 54°24' E 018°41'0 0.0
2014-Sep-18 08:33N 54°24' E 018°41'0 0.0
2014-Sep-18 07:33N 54°24' E 018°41'0 0.0
2014-Sep-18 06:33N 54°24' E 018°41'0 0.0
2014-Sep-18 05:33N 54°24' E 018°41'0 0.0
2014-Sep-18 04:33N 54°24' E 018°41'0 0.0
2014-Sep-18 03:33N 54°24' E 018°41'0 0.0
2014-Sep-18 02:33N 54°24' E 018°41'0 0.0
2014-Sep-18 01:33N 54°24' E 018°41'0 0.0
2014-Sep-18 00:33N 54°24' E 018°41'0 0.0
2014-Sep-17 23:33N 54°24' E 018°41'0 0.0
2014-Sep-17 22:33N 54°24' E 018°41'0 0.0
2014-Sep-17 21:33N 54°24' E 018°41'0 0.0
2014-Sep-17 20:33N 54°24' E 018°41'0 0.0
2014-Sep-17 19:33N 54°24' E 018°41'0 0.0
2014-Sep-17 18:33N 54°24' E 018°41'0 0.0
2014-Sep-17 17:33N 54°24' E 018°41'0 0.0
2014-Sep-17 16:33N 54°24' E 018°41'0 0.0
2014-Sep-17 15:33N 54°24' E 018°41'0 0.0
2014-Sep-17 14:33N 54°24' E 018°41'0 0.0
2014-Sep-17 13:33N 54°24' E 018°41'0 0.0
2014-Sep-17 12:33N 54°24' E 018°41'0 0.0
2014-Sep-17 11:33N 54°24' E 018°41'0 0.0
2014-Sep-17 10:33N 54°24' E 018°41'0 0.0
2014-Sep-17 09:33N 54°24' E 018°41'0 0.0
2014-Sep-17 08:33N 54°24' E 018°41'0 0.0
2014-Sep-17 07:33N 54°24' E 018°41'0 0.0
2014-Sep-17 06:33N 54°24' E 018°41'0 0.0
2014-Sep-17 05:32N 54°24' E 018°41'0 0.0
2014-Sep-17 04:32N 54°24' E 018°41'0 0.0
2014-Sep-17 03:32N 54°24' E 018°41'0 0.0
2014-Sep-17 02:32N 54°24' E 018°41'0 0.0
2014-Sep-17 01:32N 54°24' E 018°41'0 0.0
2014-Sep-17 00:32N 54°24' E 018°41'0 0.0
2014-Sep-16 23:32N 54°24' E 018°41'0 0.0
2014-Sep-16 22:32N 54°24' E 018°41'0 0.0
2014-Sep-16 21:32N 54°24' E 018°41'0 0.0
2014-Sep-16 20:32N 54°24' E 018°41'0 0.0
2014-Sep-16 19:32N 54°24' E 018°41'0 0.0
2014-Sep-16 18:32N 54°24' E 018°41'0 0.0
2014-Sep-16 17:32N 54°24' E 018°41'0 0.0
2014-Sep-16 16:32N 54°24' E 018°41'0 0.0
2014-Sep-16 15:32N 54°24' E 018°41'0 0.0
2014-Sep-16 14:32N 54°24' E 018°41'0 0.0
2014-Sep-16 13:32N 54°24' E 018°41'3 3.4
2014-Sep-16 12:33N 54°28' E 018°41'5 5.1
2014-Sep-16 11:33N 54°31' E 018°47'1211.8
2014-Sep-16 10:33N 54°41' E 018°57'1010.1
2014-Sep-16 09:33N 54°50' E 018°48'1110.8
2014-Sep-16 08:33N 54°55' E 018°32'1111.1
2014-Sep-16 07:33N 54°55' E 018°13'1111.0
2014-Sep-16 06:33N 54°54' E 017°54'1111.2
2014-Sep-16 05:33N 54°53' E 017°34'1111.2
2014-Sep-16 04:33N 54°52' E 017°15'1511.1
2014-Sep-16 03:11N 54°49' E 016°49'911.4
2014-Sep-16 02:26N 54°47' E 016°34'1011.4
2014-Sep-16 01:31N 54°45' E 016°17'1111.0
2014-Sep-16 00:33N 54°44' E 015°58'1310.3
2014-Sep-15 23:20N 54°42' E 015°37'21 9.4
2014-Sep-15 21:06N 54°39' E 015°01'15 9.1
2014-Sep-15 19:29N 54°37' E 014°36'9 9.6
2014-Sep-15 18:33N 54°36' E 014°20'10 9.8
2014-Sep-15 17:31N 54°39' E 014°03'10 9.8
2014-Sep-15 16:28N 54°42' E 013°46'9 9.5
2014-Sep-15 15:33N 54°44' E 013°32'10 9.8
2014-Sep-15 14:33N 54°43' E 013°15'1010.0
2014-Sep-15 13:33N 54°42' E 012°58'10 9.9
2014-Sep-15 12:33N 54°40' E 012°41'1010.1
2014-Sep-15 11:33N 54°34' E 012°26'10 9.7
2014-Sep-15 10:34N 54°27' E 012°14'9 9.3
2014-Sep-15 09:33N 54°25' E 011°59'10 9.5
2014-Sep-15 08:33N 54°26' E 011°43'1010.3
2014-Sep-15 07:33N 54°30' E 011°26'10 9.8
2014-Sep-15 06:34N 54°34' E 011°11'57 7.1
2014-Sep-14 22:32N 54°16' E 009°37'5 4.8
2014-Sep-14 21:33N 54°12' E 009°33'9 8.5
2014-Sep-14 20:32N 54°08' E 009°20'5 5.4
2014-Sep-14 19:34N 54°03' E 009°18'3 3.2
2014-Sep-14 18:34N 53°59' E 009°17'6 5.8
2014-Sep-14 17:32N 53°55' E 009°11'0 0.0
2014-Sep-14 16:32N 53°55' E 009°11'0 0.0
2014-Sep-14 15:33N 53°55' E 009°11'2 2.2
2014-Sep-14 14:33N 53°53' E 009°08'2 1.8
2014-Sep-14 13:33N 53°53' E 009°05'1211.7
2014-Sep-14 12:33N 53°51' E 008°45'1313.3
2014-Sep-14 11:34N 53°59' E 008°27'1312.7
2014-Sep-14 10:33N 53°59' E 008°05'1211.9
2014-Sep-14 09:33N 53°56' E 007°45'5610.5
2014-Sep-14 04:14N 53°43' E 006°14'710.3
2014-Sep-14 03:33N 53°40' E 006°03'10 9.8
2014-Sep-14 02:33N 53°37' E 005°47'1010.0
2014-Sep-14 01:34N 53°34' E 005°31'6210.3
2014-Sep-13 19:33N 52°52' E 004°15'1111.1
2014-Sep-13 18:33N 52°43' E 004°03'9410.4
2014-Sep-13 09:29N 51°33' E 002°21'9 9.7
2014-Sep-13 08:33N 51°26' E 002°13'1110.6
2014-Sep-13 07:33N 51°16' E 002°05'  

Dump ship's entire track history